createdAt,value
2023-10-23T00:01:04.689Z,1.40
2023-10-23T00:03:31.281Z,1.25
2023-10-23T00:05:57.817Z,1.15
2023-10-23T00:08:24.235Z,1.20
2023-10-23T00:10:50.598Z,1.35
2023-10-23T00:13:16.960Z,1.38
2023-10-23T00:15:43.824Z,1.25
2023-10-23T00:18:10.139Z,1.77
2023-10-23T00:20:36.494Z,1.80
2023-10-23T00:23:02.856Z,1.15
2023-10-23T00:25:29.320Z,1.48
2023-10-23T00:27:55.772Z,1.40
2023-10-23T00:30:22.158Z,1.20
2023-10-23T00:32:48.781Z,1.10
2023-10-23T00:35:15.280Z,1.38
2023-10-23T00:37:41.675Z,2.50
2023-10-23T00:40:08.397Z,1.98
2023-10-23T00:42:34.742Z,1.80
2023-10-23T00:45:01.124Z,1.30
2023-10-23T00:47:27.559Z,1.60
2023-10-23T00:49:56.481Z,1.38
2023-10-23T00:52:22.858Z,1.92
2023-10-23T00:54:49.239Z,1.70
2023-10-23T00:57:15.610Z,1.80
2023-10-23T00:59:42.429Z,2.33
2023-10-23T01:02:08.927Z,1.95
2023-10-23T01:04:35.309Z,2.05
2023-10-23T01:07:01.783Z,1.70
2023-10-23T01:09:28.254Z,2.20
2023-10-23T01:11:54.700Z,1.65
2023-10-23T01:14:21.002Z,1.80
2023-10-23T01:16:47.353Z,1.58
2023-10-23T01:19:13.742Z,1.58
2023-10-23T01:21:40.158Z,1.95
2023-10-23T01:24:06.914Z,1.33
2023-10-23T01:26:33.262Z,1.73
2023-10-23T01:28:59.644Z,1.77
2023-10-23T01:31:26.045Z,0.43
2023-10-23T01:33:52.431Z,1.35
2023-10-23T01:36:18.777Z,1.00
2023-10-23T01:38:45.108Z,1.50
2023-10-23T01:41:11.579Z,1.90
2023-10-23T01:43:37.931Z,1.70
2023-10-23T01:46:04.610Z,2.33
2023-10-23T01:48:31.035Z,0.60
2023-10-23T01:51:00.820Z,1.55
2023-10-23T01:53:27.249Z,0.55
2023-10-23T01:55:53.611Z,0.95
2023-10-23T01:58:19.977Z,2.08
2023-10-23T02:00:46.392Z,2.00
2023-10-23T02:03:12.929Z,1.80
2023-10-23T02:05:39.357Z,0.63
2023-10-23T02:08:05.673Z,0.52
2023-10-23T02:10:33.003Z,1.25
2023-10-23T02:12:59.406Z,1.75
2023-10-23T02:15:25.899Z,1.92
2023-10-23T02:17:52.485Z,1.73
2023-10-23T02:20:19.877Z,1.98
2023-10-23T02:22:46.236Z,0.82
2023-10-23T02:25:12.555Z,1.58
2023-10-23T02:27:38.885Z,1.60
2023-10-23T02:30:05.751Z,1.83
2023-10-23T02:32:32.187Z,0.40
2023-10-23T02:34:59.928Z,2.15
2023-10-23T02:37:26.390Z,2.10
2023-10-23T02:39:53.222Z,2.67
2023-10-23T02:42:19.662Z,2.00
2023-10-23T02:44:46.062Z,2.15
2023-10-23T02:47:12.364Z,1.80
2023-10-23T02:49:38.846Z,0.50
2023-10-23T02:52:05.515Z,2.05
2023-10-23T02:54:31.991Z,1.40
2023-10-23T02:56:58.394Z,2.10
2023-10-23T02:59:24.832Z,0.55
2023-10-23T03:01:52.420Z,0.82
2023-10-23T03:04:18.980Z,2.17
2023-10-23T03:06:45.328Z,1.83
2023-10-23T03:09:13.519Z,0.65
2023-10-23T03:11:40.092Z,1.45
2023-10-23T03:14:08.979Z,0.73
2023-10-23T03:16:35.459Z,0.73
2023-10-23T03:19:01.987Z,2.45
2023-10-23T03:21:28.369Z,2.50
2023-10-23T03:23:54.755Z,1.90
2023-10-23T03:26:21.248Z,0.65
2023-10-23T03:28:47.620Z,2.05
2023-10-23T03:31:14.041Z,1.80
2023-10-23T03:33:41.394Z,0.75
2023-10-23T03:36:08.040Z,1.63
2023-10-23T03:38:34.356Z,2.00
2023-10-23T03:41:01.035Z,1.63
2023-10-23T03:43:27.704Z,0.45
2023-10-23T03:45:54.423Z,1.80
2023-10-23T03:48:20.896Z,2.05
2023-10-23T03:50:47.362Z,0.77
2023-10-23T03:53:13.733Z,0.90
2023-10-23T03:55:40.080Z,2.03
2023-10-23T03:58:06.477Z,0.75
2023-10-23T04:00:32.893Z,0.43
2023-10-23T04:02:59.396Z,1.08
2023-10-23T04:05:25.793Z,2.20
2023-10-23T04:07:52.223Z,0.52
2023-10-23T04:10:18.726Z,0.68
2023-10-23T04:12:45.141Z,2.55
2023-10-23T04:15:11.570Z,1.00
2023-10-23T04:17:38.130Z,2.80
2023-10-23T04:20:05.497Z,1.80
2023-10-23T04:22:32.091Z,1.55
2023-10-23T04:24:58.434Z,1.42
2023-10-23T04:27:24.842Z,1.55
2023-10-23T04:29:51.254Z,2.42
2023-10-23T04:32:17.664Z,1.23
2023-10-23T04:34:44.010Z,4.00
2023-10-23T04:37:10.446Z,1.10
2023-10-23T04:39:37.076Z,1.15
2023-10-23T04:42:03.507Z,3.92
2023-10-23T04:44:29.976Z,3.90
2023-10-23T04:46:56.434Z,1.48
2023-10-23T04:49:22.954Z,1.40
2023-10-23T04:51:49.349Z,1.65
2023-10-23T04:54:15.668Z,1.95
2023-10-23T04:56:42.620Z,3.67
2023-10-23T04:59:09.078Z,1.45
2023-10-23T05:01:35.495Z,1.02
2023-10-23T05:04:01.920Z,1.23
2023-10-23T05:06:28.511Z,0.95
2023-10-23T05:08:55.153Z,3.55
2023-10-23T05:11:21.528Z,1.20
2023-10-23T05:13:48.134Z,3.05
2023-10-23T05:16:14.622Z,1.30
2023-10-23T05:18:41.103Z,1.33
2023-10-23T05:21:08.357Z,1.10
2023-10-23T05:23:34.783Z,1.02
2023-10-23T05:26:01.146Z,0.95
2023-10-23T05:28:27.497Z,0.98
2023-10-23T05:30:53.863Z,1.20
2023-10-23T05:33:21.115Z,1.55
2023-10-23T05:35:47.781Z,1.65
2023-10-23T05:38:14.539Z,2.72
2023-10-23T05:40:40.918Z,0.63
2023-10-23T05:43:07.352Z,0.75
2023-10-23T05:45:36.830Z,2.20
2023-10-23T05:48:03.768Z,0.60
2023-10-23T05:50:30.318Z,0.90
2023-10-23T05:52:56.646Z,0.75
2023-10-23T05:55:23.098Z,0.35
2023-10-23T05:57:49.529Z,2.00
2023-10-23T06:00:16.023Z,1.00
2023-10-23T06:02:42.367Z,1.92
2023-10-23T06:05:10.294Z,1.17
2023-10-23T06:07:36.855Z,0.68
2023-10-23T06:10:04.917Z,0.73
2023-10-23T06:12:31.330Z,1.20
2023-10-23T06:14:59.828Z,0.22
2023-10-23T06:17:26.859Z,0.43
2023-10-23T06:19:53.312Z,0.30
2023-10-23T06:22:19.686Z,0.52
2023-10-23T06:24:46.204Z,0.25
2023-10-23T06:27:12.604Z,0.30
2023-10-23T06:29:39.249Z,2.20
2023-10-23T06:32:06.131Z,1.35
2023-10-23T06:34:32.564Z,0.98
2023-10-23T06:36:58.996Z,0.93
2023-10-23T06:39:26.586Z,1.02
2023-10-23T06:41:53.385Z,1.05
2023-10-23T06:44:20.827Z,0.55
2023-10-23T06:46:47.272Z,0.60
2023-10-23T06:49:13.622Z,0.47
2023-10-23T06:51:39.980Z,1.10
2023-10-23T06:54:06.522Z,0.70
2023-10-23T06:56:32.991Z,0.38
2023-10-23T06:58:59.474Z,0.47
2023-10-23T07:01:34.228Z,2.55
2023-10-23T07:04:08.517Z,0.68
2023-10-23T07:06:35.006Z,0.63
2023-10-23T07:09:01.429Z,2.70
2023-10-23T07:11:27.882Z,3.45
2023-10-23T07:13:54.277Z,0.80
2023-10-23T07:16:21.189Z,3.60
2023-10-23T07:18:47.698Z,1.60
2023-10-23T07:21:16.156Z,4.68
2023-10-23T07:23:43.109Z,1.67
2023-10-23T07:26:14.191Z,2.83
2023-10-23T07:28:41.206Z,8.68
2023-10-23T07:31:08.672Z,7.80
2023-10-23T07:33:35.488Z,8.52
2023-10-23T07:36:06.084Z,4.18
2023-10-23T07:38:32.561Z,9.15
2023-10-23T07:40:59.140Z,10.98
2023-10-23T07:43:29.131Z,4.18
2023-10-23T07:46:04.139Z,11.40
2023-10-23T07:48:39.129Z,6.68
2023-10-23T07:51:05.540Z,10.05
2023-10-23T07:53:36.511Z,10.18
2023-10-23T07:56:05.421Z,9.63
2023-10-23T07:58:32.161Z,7.93
2023-10-23T08:01:08.832Z,7.55
2023-10-23T08:03:35.989Z,7.07
2023-10-23T08:06:04.735Z,8.52
2023-10-23T08:08:38.308Z,8.05
2023-10-23T08:11:05.147Z,10.83
2023-10-23T08:13:31.871Z,8.82
2023-10-23T08:16:00.807Z,6.53
2023-10-23T08:18:37.154Z,6.20
2023-10-23T08:21:15.349Z,7.38
2023-10-23T08:23:42.319Z,7.70
2023-10-23T08:26:08.740Z,7.45
2023-10-23T08:28:58.574Z,6.53
2023-10-23T08:31:37.093Z,7.13
2023-10-23T08:34:06.289Z,7.80
2023-10-23T08:36:33.018Z,6.85
2023-10-23T08:39:00.375Z,7.70
2023-10-23T08:41:26.823Z,6.82
2023-10-23T08:43:53.334Z,5.32
2023-10-23T08:46:21.004Z,5.50
2023-10-23T08:48:47.671Z,6.05
2023-10-23T08:51:15.737Z,7.38
2023-10-23T08:54:08.845Z,6.35
2023-10-23T08:56:40.208Z,5.40
2023-10-23T08:59:06.852Z,8.32
2023-10-23T09:01:37.200Z,7.80
2023-10-23T09:04:06.048Z,6.82
2023-10-23T09:06:33.680Z,7.40
2023-10-23T09:09:00.708Z,7.40
2023-10-23T09:11:40.233Z,7.00
2023-10-23T09:14:06.548Z,5.80
2023-10-23T09:16:33.623Z,6.13
2023-10-23T09:19:00.032Z,5.60
2023-10-23T09:21:26.555Z,6.50
2023-10-23T09:23:56.683Z,5.88
2023-10-23T09:26:23.690Z,4.75
2023-10-23T09:28:51.433Z,5.75
2023-10-23T09:31:18.075Z,6.82
2023-10-23T09:33:44.968Z,5.43
2023-10-23T09:36:11.503Z,5.32
2023-10-23T09:38:40.652Z,5.80
2023-10-23T09:41:13.330Z,4.32
2023-10-23T09:43:44.784Z,6.18
2023-10-23T09:46:12.742Z,5.85
2023-10-23T09:48:44.353Z,5.75
2023-10-23T09:51:17.181Z,4.88
2023-10-23T09:53:49.448Z,5.55
2023-10-23T09:56:20.596Z,4.35
2023-10-23T09:58:48.710Z,4.95
2023-10-23T10:01:16.469Z,4.68
2023-10-23T10:03:43.422Z,5.55
2023-10-23T10:06:14.275Z,5.63
2023-10-23T10:08:42.474Z,5.05
2023-10-23T10:11:08.996Z,5.03
2023-10-23T10:13:36.914Z,5.65
2023-10-23T10:16:05.730Z,5.32
2023-10-23T10:18:33.365Z,4.65
2023-10-23T10:21:02.023Z,5.55
2023-10-23T10:23:29.392Z,5.70
2023-10-23T10:25:55.924Z,4.85
2023-10-23T10:28:26.617Z,5.30
2023-10-23T10:30:53.293Z,4.88
2023-10-23T10:34:21.324Z,5.22
2023-10-23T10:36:11.655Z,4.05
2023-10-23T10:38:38.082Z,4.53
2023-10-23T10:41:18.761Z,4.47
2023-10-23T10:43:51.195Z,4.15
2023-10-23T10:46:24.723Z,3.67
2023-10-23T10:48:55.195Z,4.50
2023-10-23T10:51:25.931Z,3.95
2023-10-23T10:54:01.670Z,4.63
2023-10-23T10:56:28.259Z,4.18
2023-10-23T10:58:54.762Z,4.50
2023-10-23T11:01:24.017Z,5.47
2023-10-23T11:03:50.612Z,4.82
2023-10-23T11:06:17.095Z,4.82
2023-10-23T11:08:43.485Z,4.25
2023-10-23T11:11:10.848Z,4.97
2023-10-23T11:13:37.278Z,4.95
2023-10-23T11:16:05.899Z,5.30
2023-10-23T11:18:32.581Z,4.70
2023-10-23T11:21:01.096Z,5.25
2023-10-23T11:23:33.448Z,5.35
2023-10-23T11:25:59.927Z,5.30
2023-10-23T11:28:26.468Z,5.47
2023-10-23T11:30:58.755Z,4.93
2023-10-23T11:33:25.262Z,4.78
2023-10-23T11:35:52.858Z,4.88
2023-10-23T11:38:20.883Z,5.90
2023-10-23T11:40:47.304Z,6.82
2023-10-23T11:43:17.153Z,5.55
2023-10-23T11:45:46.106Z,5.95
2023-10-23T11:48:13.337Z,6.43
2023-10-23T11:50:43.478Z,6.75
2023-10-23T11:53:10.065Z,8.10
2023-10-23T11:55:38.054Z,7.88
2023-10-23T11:58:05.087Z,7.50
2023-10-23T12:00:32.664Z,7.72
2023-10-23T12:02:59.767Z,7.13
2023-10-23T12:05:26.306Z,6.90
2023-10-23T12:07:56.460Z,7.03
2023-10-23T12:10:23.720Z,7.22
2023-10-23T12:12:53.458Z,6.95
2023-10-23T12:15:20.350Z,7.65
2023-10-23T12:17:46.683Z,7.45
2023-10-23T12:20:15.509Z,7.88
2023-10-23T12:22:42.795Z,7.10
2023-10-23T12:25:10.156Z,7.28
2023-10-23T12:27:36.971Z,7.57
2023-10-23T12:30:07.038Z,7.55
2023-10-23T12:33:13.353Z,6.40
2023-10-23T12:35:22.400Z,8.43
2023-10-23T12:37:48.928Z,8.15
2023-10-23T12:40:15.331Z,7.68
2023-10-23T12:42:41.741Z,8.35
2023-10-23T12:45:08.562Z,7.82
2023-10-23T12:47:36.024Z,7.88
2023-10-23T12:50:04.241Z,8.15
2023-10-23T12:52:30.708Z,7.80
2023-10-23T12:54:57.144Z,7.05
2023-10-23T12:57:23.545Z,7.47
2023-10-23T12:59:49.913Z,9.20
2023-10-23T13:02:16.340Z,7.80
2023-10-23T13:04:45.002Z,7.75
2023-10-23T13:07:13.048Z,8.10
2023-10-23T13:09:40.098Z,6.75
2023-10-23T13:12:06.743Z,7.03
2023-10-23T13:14:33.053Z,7.20
2023-10-23T13:16:59.445Z,6.97
2023-10-23T13:19:25.951Z,6.85
2023-10-23T13:21:52.404Z,7.60
2023-10-23T13:24:19.797Z,5.30
2023-10-23T13:26:46.160Z,5.88
2023-10-23T13:29:12.716Z,6.20
2023-10-23T13:31:39.116Z,6.65
2023-10-23T13:34:05.751Z,5.30
2023-10-23T13:36:32.190Z,6.20
2023-10-23T13:38:58.562Z,6.43
2023-10-23T13:41:24.905Z,7.93
2023-10-23T13:43:51.290Z,6.38
2023-10-23T13:46:19.263Z,6.00
2023-10-23T13:48:46.969Z,5.25
2023-10-23T13:51:13.863Z,4.50
2023-10-23T13:53:40.983Z,4.93
2023-10-23T13:56:07.422Z,4.85
2023-10-23T13:58:36.803Z,5.60
2023-10-23T14:01:03.906Z,5.65
2023-10-23T14:03:30.327Z,5.15
2023-10-23T14:05:56.823Z,6.05
2023-10-23T14:08:33.269Z,6.40
2023-10-23T14:11:57.971Z,5.78
2023-10-23T14:13:56.790Z,6.07
2023-10-23T14:16:23.268Z,6.18
2023-10-23T14:18:49.740Z,5.35
2023-10-23T14:21:16.161Z,5.05
2023-10-23T14:23:42.539Z,5.40
2023-10-23T14:26:09.691Z,5.03
2023-10-23T14:28:36.077Z,5.47
2023-10-23T14:31:02.432Z,5.25
2023-10-23T14:33:28.797Z,4.75
2023-10-23T14:35:56.327Z,4.00
2023-10-23T14:38:25.024Z,4.50
2023-10-23T14:40:54.611Z,5.22
2023-10-23T14:43:21.172Z,5.20
2023-10-23T14:45:52.417Z,5.47
2023-10-23T14:48:20.404Z,5.50
2023-10-23T14:50:47.003Z,5.68
2023-10-23T14:53:13.605Z,5.22
2023-10-23T14:55:39.912Z,5.30
2023-10-23T14:58:06.347Z,6.20
2023-10-23T15:00:35.594Z,6.07
2023-10-23T15:03:02.178Z,6.35
2023-10-23T15:05:29.223Z,6.30
2023-10-23T15:07:55.629Z,6.05
2023-10-23T15:10:22.115Z,6.50
2023-10-23T15:12:48.572Z,5.43
2023-10-23T15:15:14.993Z,7.93
2023-10-23T15:17:41.443Z,7.28
2023-10-23T15:20:08.059Z,6.95
2023-10-23T15:22:35.535Z,6.55
2023-10-23T15:25:02.137Z,7.85
2023-10-23T15:27:28.518Z,9.13
2023-10-23T15:29:55.119Z,9.43
2023-10-23T15:32:21.505Z,9.05
2023-10-23T15:34:47.923Z,12.00
2023-10-23T15:37:14.318Z,10.02
2023-10-23T15:39:43.500Z,7.50
2023-10-23T15:42:09.884Z,9.85
2023-10-23T15:44:36.395Z,11.32
2023-10-23T15:47:02.796Z,9.02
2023-10-23T15:49:29.259Z,8.70
2023-10-23T15:51:55.671Z,7.45
2023-10-23T15:54:22.044Z,8.25
2023-10-23T15:56:48.851Z,8.00
2023-10-23T15:59:15.240Z,7.10
2023-10-23T16:01:42.244Z,7.07
2023-10-23T16:04:08.940Z,7.70
2023-10-23T16:06:37.264Z,8.35
2023-10-23T16:09:17.297Z,9.93
2023-10-23T16:11:44.494Z,9.75
2023-10-23T16:14:10.938Z,9.02
2023-10-23T16:16:37.369Z,10.15
2023-10-23T16:19:04.489Z,9.88
2023-10-23T16:21:30.858Z,8.60
2023-10-23T16:23:57.224Z,11.20
2023-10-23T16:26:23.596Z,8.55
2023-10-23T16:28:49.940Z,8.27
2023-10-23T16:31:16.680Z,10.57
2023-10-23T16:33:43.244Z,10.25
2023-10-23T16:36:09.890Z,10.38
2023-10-23T16:38:36.245Z,9.98
2023-10-23T16:41:02.619Z,11.57
2023-10-23T16:43:29.044Z,10.30
2023-10-23T16:45:55.462Z,12.68
2023-10-23T16:48:21.871Z,10.60
2023-10-23T16:50:48.236Z,10.13
2023-10-23T16:53:14.597Z,12.43
2023-10-23T16:55:40.946Z,10.48
2023-10-23T16:58:07.538Z,10.82
2023-10-23T17:00:33.930Z,10.77
2023-10-23T17:03:02.796Z,10.50
2023-10-23T17:05:29.237Z,10.25
2023-10-23T17:07:55.584Z,11.52
2023-10-23T17:10:22.052Z,10.27
2023-10-23T17:12:48.423Z,10.98
2023-10-23T17:15:14.769Z,10.93
2023-10-23T17:17:41.269Z,10.30
2023-10-23T17:20:10.968Z,10.18
2023-10-23T17:22:37.590Z,10.38
2023-10-23T17:25:04.822Z,9.73
2023-10-23T17:27:31.314Z,10.10
2023-10-23T17:29:57.772Z,10.82
2023-10-23T17:32:24.188Z,11.10
2023-10-23T17:34:50.529Z,11.10
2023-10-23T17:37:16.888Z,9.82
2023-10-23T17:39:43.287Z,11.15
2023-10-23T17:42:09.678Z,10.82
2023-10-23T17:44:36.041Z,11.23
2023-10-23T17:47:02.455Z,10.48
2023-10-23T17:49:28.897Z,11.23
2023-10-23T17:51:55.778Z,12.30
2023-10-23T17:54:22.444Z,11.65
2023-10-23T17:56:48.786Z,10.13
2023-10-23T17:59:15.132Z,12.15
2023-10-23T18:01:43.439Z,11.88
2023-10-23T18:04:11.816Z,12.45
2023-10-23T18:06:38.536Z,12.25
2023-10-23T18:09:05.703Z,11.57
2023-10-23T18:11:32.589Z,12.52
2023-10-23T18:13:59.162Z,12.23
2023-10-23T18:16:25.637Z,12.93
2023-10-23T18:18:51.993Z,13.30
2023-10-23T18:21:19.337Z,12.30
2023-10-23T18:23:45.646Z,11.05
2023-10-23T18:26:12.041Z,13.57
2023-10-23T18:28:38.414Z,12.63
2023-10-23T18:31:05.262Z,13.65
2023-10-23T18:33:32.250Z,13.68
2023-10-23T18:36:02.527Z,12.05
2023-10-23T18:38:29.251Z,13.40
2023-10-23T18:40:56.055Z,12.70
2023-10-23T18:43:24.209Z,11.23
2023-10-23T18:45:50.688Z,11.32
2023-10-23T18:48:17.121Z,12.52
2023-10-23T18:50:43.916Z,11.45
2023-10-23T18:53:10.366Z,12.55
2023-10-23T18:55:36.873Z,11.40
2023-10-23T18:58:03.349Z,10.75
2023-10-23T19:00:29.850Z,11.98
2023-10-23T19:02:56.344Z,11.55
2023-10-23T19:05:22.737Z,11.57
2023-10-23T19:07:50.230Z,11.05
2023-10-23T19:10:16.690Z,10.38
2023-10-23T19:12:43.062Z,10.43
2023-10-23T19:15:09.601Z,10.70
2023-10-23T19:17:40.854Z,10.82
2023-10-23T19:20:08.801Z,10.55
2023-10-23T19:22:36.929Z,10.27
2023-10-23T19:25:04.941Z,10.52
2023-10-23T19:27:31.609Z,10.65
2023-10-23T19:29:57.948Z,9.50
2023-10-23T19:32:26.014Z,9.90
2023-10-23T19:34:52.781Z,9.75
2023-10-23T19:37:19.304Z,9.45
2023-10-23T19:39:45.785Z,11.50
2023-10-23T19:42:14.476Z,10.95
2023-10-23T19:44:41.004Z,10.00
2023-10-23T19:47:07.717Z,10.48
2023-10-23T19:49:34.475Z,10.25
2023-10-23T19:52:01.414Z,9.73
2023-10-23T19:54:38.252Z,8.93
2023-10-23T19:57:11.087Z,8.98
2023-10-23T19:59:38.997Z,8.82
2023-10-23T20:02:06.168Z,9.35
2023-10-23T20:04:33.015Z,9.48
2023-10-23T20:07:00.269Z,8.55
2023-10-23T20:09:26.893Z,8.80
2023-10-23T20:11:53.333Z,6.85
2023-10-23T20:14:19.715Z,8.52
2023-10-23T20:16:46.095Z,9.60
2023-10-23T20:19:13.376Z,8.73
2023-10-23T20:21:40.226Z,9.15
2023-10-23T20:24:06.630Z,7.70
2023-10-23T20:26:33.134Z,8.07
2023-10-23T20:28:59.503Z,9.15
2023-10-23T20:31:26.025Z,9.38
2023-10-23T20:33:52.637Z,7.60
2023-10-23T20:36:19.674Z,8.82
2023-10-23T20:38:46.069Z,8.13
2023-10-23T20:41:16.896Z,9.57
2023-10-23T20:43:44.331Z,9.10
2023-10-23T20:46:11.062Z,9.50
2023-10-23T20:48:37.448Z,7.70
2023-10-23T20:51:06.927Z,10.00
2023-10-23T20:53:33.285Z,9.73
2023-10-23T20:56:02.289Z,8.32
2023-10-23T20:58:28.815Z,8.82
2023-10-23T21:00:55.267Z,9.38
2023-10-23T21:03:21.762Z,9.05
2023-10-23T21:05:48.095Z,9.27
2023-10-23T21:08:14.456Z,11.05
2023-10-23T21:10:40.851Z,8.77
2023-10-23T21:13:07.278Z,9.30
2023-10-23T21:15:33.690Z,9.45
2023-10-23T21:18:00.105Z,9.90
2023-10-23T21:20:26.490Z,8.10
2023-10-23T21:22:52.938Z,10.02
2023-10-23T21:25:19.264Z,9.65
2023-10-23T21:27:45.582Z,9.82
2023-10-23T21:30:12.128Z,9.50
2023-10-23T21:32:38.432Z,8.90
2023-10-23T21:35:05.231Z,9.18
2023-10-23T21:37:31.636Z,8.73
2023-10-23T21:39:57.956Z,9.27
2023-10-23T21:42:24.294Z,9.45
2023-10-23T21:44:50.602Z,10.25
2023-10-23T21:47:17.052Z,8.82
2023-10-23T21:49:43.444Z,8.82
2023-10-23T21:52:11.750Z,10.55
2023-10-23T21:54:38.362Z,10.15
2023-10-23T21:57:21.487Z,9.10
2023-10-23T21:59:49.817Z,9.05
2023-10-23T22:02:16.499Z,9.05
2023-10-23T22:04:43.148Z,9.23
2023-10-23T22:07:09.877Z,9.23
2023-10-23T22:09:37.824Z,8.55
2023-10-23T22:12:05.776Z,9.40
2023-10-23T22:14:32.317Z,9.73
2023-10-23T22:16:58.731Z,9.00
2023-10-23T22:19:26.457Z,9.38
2023-10-23T22:21:53.136Z,9.23
2023-10-23T22:24:19.498Z,9.52
2023-10-23T22:26:45.854Z,10.18
2023-10-23T22:29:12.206Z,9.60
2023-10-23T22:31:38.805Z,9.32
2023-10-23T22:34:05.663Z,9.40
2023-10-23T22:36:32.070Z,9.00
2023-10-23T22:38:58.381Z,9.40
2023-10-23T22:41:24.734Z,8.65
2023-10-23T22:43:51.072Z,8.52
2023-10-23T22:46:17.472Z,8.30
2023-10-23T22:48:43.860Z,9.20
2023-10-23T22:51:10.354Z,9.23
2023-10-23T22:53:38.248Z,8.65
2023-10-23T22:56:07.374Z,8.85
2023-10-23T22:58:34.111Z,8.70
2023-10-23T23:01:00.687Z,9.05
2023-10-23T23:03:27.417Z,8.40
2023-10-23T23:05:55.299Z,10.00
2023-10-23T23:08:22.234Z,8.57
2023-10-23T23:10:48.664Z,8.00
2023-10-23T23:13:15.109Z,9.38
2023-10-23T23:15:43.836Z,8.35
2023-10-23T23:18:11.303Z,8.43
2023-10-23T23:20:40.381Z,8.15
2023-10-23T23:23:06.705Z,8.60
2023-10-23T23:25:33.076Z,8.63
2023-10-23T23:27:59.401Z,8.70
2023-10-23T23:30:26.331Z,8.73
2023-10-23T23:32:52.885Z,9.18
2023-10-23T23:35:19.348Z,9.02
2023-10-23T23:37:45.793Z,8.82
2023-10-23T23:40:12.399Z,9.07
2023-10-23T23:42:38.817Z,9.50
2023-10-23T23:45:05.365Z,9.35
2023-10-23T23:47:31.769Z,9.75
2023-10-23T23:49:58.321Z,10.98
2023-10-23T23:52:24.850Z,8.13
2023-10-23T23:54:51.261Z,8.93
2023-10-23T23:57:17.621Z,6.95
2023-10-23T23:59:44.005Z,8.13
